sensor_id;sensor_type;location;lat;lon;timestamp;temperature;humidity
43524;DHT22;29120;52.006;6.020;2022-09-01T00:01:14;17.30;70.60
43524;DHT22;29120;52.006;6.020;2022-09-01T00:03:48;17.30;70.50
43524;DHT22;29120;52.006;6.020;2022-09-01T00:06:17;17.30;70.70
43524;DHT22;29120;52.006;6.020;2022-09-01T00:08:50;17.20;70.60
43524;DHT22;29120;52.006;6.020;2022-09-01T00:11:16;17.20;70.80
43524;DHT22;29120;52.006;6.020;2022-09-01T00:13:42;17.20;70.90
43524;DHT22;29120;52.006;6.020;2022-09-01T00:16:07;17.20;70.90
43524;DHT22;29120;52.006;6.020;2022-09-01T00:18:34;17.10;71.00
43524;DHT22;29120;52.006;6.020;2022-09-01T00:21:00;17.10;71.50
43524;DHT22;29120;52.006;6.020;2022-09-01T00:23:26;17.10;71.40
43524;DHT22;29120;52.006;6.020;2022-09-01T00:25:52;17.10;71.40
43524;DHT22;29120;52.006;6.020;2022-09-01T00:28:18;17.10;71.50
43524;DHT22;29120;52.006;6.020;2022-09-01T00:30:44;17.00;71.60
43524;DHT22;29120;52.006;6.020;2022-09-01T00:33:10;17.00;71.60
43524;DHT22;29120;52.006;6.020;2022-09-01T00:35:36;17.00;71.70
43524;DHT22;29120;52.006;6.020;2022-09-01T00:38:01;17.00;71.90
43524;DHT22;29120;52.006;6.020;2022-09-01T00:40:27;16.90;71.90
43524;DHT22;29120;52.006;6.020;2022-09-01T00:42:53;16.90;72.00
43524;DHT22;29120;52.006;6.020;2022-09-01T00:45:20;16.90;72.00
43524;DHT22;29120;52.006;6.020;2022-09-01T00:47:47;16.90;72.10
43524;DHT22;29120;52.006;6.020;2022-09-01T00:50:14;16.90;72.30
43524;DHT22;29120;52.006;6.020;2022-09-01T00:52:45;16.80;72.50
43524;DHT22;29120;52.006;6.020;2022-09-01T00:55:22;16.80;72.60
43524;DHT22;29120;52.006;6.020;2022-09-01T00:57:48;16.80;72.80
43524;DHT22;29120;52.006;6.020;2022-09-01T01:00:26;16.70;72.90
43524;DHT22;29120;52.006;6.020;2022-09-01T01:02:53;16.70;73.20
43524;DHT22;29120;52.006;6.020;2022-09-01T01:05:28;16.60;73.00
43524;DHT22;29120;52.006;6.020;2022-09-01T01:07:58;16.60;73.00
43524;DHT22;29120;52.006;6.020;2022-09-01T01:10:25;16.60;73.10
43524;DHT22;29120;52.006;6.020;2022-09-01T01:12:50;16.60;73.10
43524;DHT22;29120;52.006;6.020;2022-09-01T01:15:18;16.60;72.80
43524;DHT22;29120;52.006;6.020;2022-09-01T01:17:43;16.60;72.80
43524;DHT22;29120;52.006;6.020;2022-09-01T01:20:11;16.60;72.70
43524;DHT22;29120;52.006;6.020;2022-09-01T01:25:35;16.60;72.60
43524;DHT22;29120;52.006;6.020;2022-09-01T01:28:28;16.60;72.50
43524;DHT22;29120;52.006;6.020;2022-09-01T01:31:04;16.60;72.50
43524;DHT22;29120;52.006;6.020;2022-09-01T01:33:43;16.70;72.50
43524;DHT22;29120;52.006;6.020;2022-09-01T01:36:12;16.60;72.50
43524;DHT22;29120;52.006;6.020;2022-09-01T01:38:43;16.70;72.60
43524;DHT22;29120;52.006;6.020;2022-09-01T01:41:13;16.80;72.60
43524;DHT22;29120;52.006;6.020;2022-09-01T01:43:40;16.80;72.40
43524;DHT22;29120;52.006;6.020;2022-09-01T01:46:08;16.90;72.30
43524;DHT22;29120;52.006;6.020;2022-09-01T01:48:38;16.90;72.10
43524;DHT22;29120;52.006;6.020;2022-09-01T01:51:04;17.00;72.10
43524;DHT22;29120;52.006;6.020;2022-09-01T01:53:31;17.00;72.00
43524;DHT22;29120;52.006;6.020;2022-09-01T01:55:57;17.00;72.00
43524;DHT22;29120;52.006;6.020;2022-09-01T01:58:24;17.00;71.80
43524;DHT22;29120;52.006;6.020;2022-09-01T02:00:51;17.00;71.70
43524;DHT22;29120;52.006;6.020;2022-09-01T02:03:22;16.90;71.60
43524;DHT22;29120;52.006;6.020;2022-09-01T02:05:50;17.00;71.60
43524;DHT22;29120;52.006;6.020;2022-09-01T02:08:16;17.00;71.50
43524;DHT22;29120;52.006;6.020;2022-09-01T02:10:48;16.90;71.40
43524;DHT22;29120;52.006;6.020;2022-09-01T02:13:16;16.90;71.30
43524;DHT22;29120;52.006;6.020;2022-09-01T02:15:52;16.90;71.20
43524;DHT22;29120;52.006;6.020;2022-09-01T02:18:21;16.90;71.30
43524;DHT22;29120;52.006;6.020;2022-09-01T02:20:49;16.80;71.30
43524;DHT22;29120;52.006;6.020;2022-09-01T02:23:17;16.80;71.40
43524;DHT22;29120;52.006;6.020;2022-09-01T02:25:44;16.80;71.50
43524;DHT22;29120;52.006;6.020;2022-09-01T02:28:12;16.70;71.50
43524;DHT22;29120;52.006;6.020;2022-09-01T02:30:43;16.70;71.60
43524;DHT22;29120;52.006;6.020;2022-09-01T02:33:12;16.70;71.80
43524;DHT22;29120;52.006;6.020;2022-09-01T02:35:49;16.60;71.70
43524;DHT22;29120;52.006;6.020;2022-09-01T02:38:16;16.60;71.80
43524;DHT22;29120;52.006;6.020;2022-09-01T02:40:43;16.60;71.80
43524;DHT22;29120;52.006;6.020;2022-09-01T02:43:10;16.60;71.70
43524;DHT22;29120;52.006;6.020;2022-09-01T02:45:37;16.60;71.80
43524;DHT22;29120;52.006;6.020;2022-09-01T02:48:03;16.60;71.90
43524;DHT22;29120;52.006;6.020;2022-09-01T02:50:35;16.50;71.90
43524;DHT22;29120;52.006;6.020;2022-09-01T02:53:01;16.50;71.90
43524;DHT22;29120;52.006;6.020;2022-09-01T02:55:30;16.50;72.00
43524;DHT22;29120;52.006;6.020;2022-09-01T02:57:55;16.40;72.00
43524;DHT22;29120;52.006;6.020;2022-09-01T03:00:23;16.40;72.20
43524;DHT22;29120;52.006;6.020;2022-09-01T03:02:59;16.30;72.30
43524;DHT22;29120;52.006;6.020;2022-09-01T03:05:27;16.30;72.40
43524;DHT22;29120;52.006;6.020;2022-09-01T03:07:58;16.20;72.60
43524;DHT22;29120;52.006;6.020;2022-09-01T03:10:36;16.20;72.60
43524;DHT22;29120;52.006;6.020;2022-09-01T03:13:22;16.20;72.60
43524;DHT22;29120;52.006;6.020;2022-09-01T03:15:50;16.10;72.50
43524;DHT22;29120;52.006;6.020;2022-09-01T03:18:16;16.10;72.40
43524;DHT22;29120;52.006;6.020;2022-09-01T03:20:46;16.10;72.40
43524;DHT22;29120;52.006;6.020;2022-09-01T03:23:14;16.10;72.40
43524;DHT22;29120;52.006;6.020;2022-09-01T03:25:45;16.10;72.40
43524;DHT22;29120;52.006;6.020;2022-09-01T03:28:12;16.00;72.40
43524;DHT22;29120;52.006;6.020;2022-09-01T03:30:43;16.00;72.50
43524;DHT22;29120;52.006;6.020;2022-09-01T03:33:09;16.00;72.50
43524;DHT22;29120;52.006;6.020;2022-09-01T03:35:35;16.00;72.50
43524;DHT22;29120;52.006;6.020;2022-09-01T03:38:02;16.00;72.50
43524;DHT22;29120;52.006;6.020;2022-09-01T03:40:33;16.00;72.30
43524;DHT22;29120;52.006;6.020;2022-09-01T03:43:02;16.00;72.30
43524;DHT22;29120;52.006;6.020;2022-09-01T03:45:29;16.00;72.20
43524;DHT22;29120;52.006;6.020;2022-09-01T03:48:00;16.00;72.20
43524;DHT22;29120;52.006;6.020;2022-09-01T03:50:28;16.00;72.20
43524;DHT22;29120;52.006;6.020;2022-09-01T03:52:57;16.00;72.30
43524;DHT22;29120;52.006;6.020;2022-09-01T03:55:28;15.90;72.20
43524;DHT22;29120;52.006;6.020;2022-09-01T03:57:58;15.90;72.30
43524;DHT22;29120;52.006;6.020;2022-09-01T04:00:26;15.90;72.30
43524;DHT22;29120;52.006;6.020;2022-09-01T04:02:56;15.90;72.30
43524;DHT22;29120;52.006;6.020;2022-09-01T04:05:26;15.90;72.20
43524;DHT22;29120;52.006;6.020;2022-09-01T04:07:57;15.90;72.20
43524;DHT22;29120;52.006;6.020;2022-09-01T04:10:23;15.90;72.20
43524;DHT22;29120;52.006;6.020;2022-09-01T04:12:49;15.80;72.30
43524;DHT22;29120;52.006;6.020;2022-09-01T04:15:16;15.70;72.20
43524;DHT22;29120;52.006;6.020;2022-09-01T04:17:43;15.70;72.30
43524;DHT22;29120;52.006;6.020;2022-09-01T04:20:28;15.70;72.30
43524;DHT22;29120;52.006;6.020;2022-09-01T04:22:54;15.60;72.30
43524;DHT22;29120;52.006;6.020;2022-09-01T04:25:20;15.60;72.30
43524;DHT22;29120;52.006;6.020;2022-09-01T04:27:51;15.60;72.30
43524;DHT22;29120;52.006;6.020;2022-09-01T04:30:21;15.60;72.30
43524;DHT22;29120;52.006;6.020;2022-09-01T04:32:53;15.50;72.20
43524;DHT22;29120;52.006;6.020;2022-09-01T04:35:22;15.50;72.20
43524;DHT22;29120;52.006;6.020;2022-09-01T04:37:57;15.40;72.40
43524;DHT22;29120;52.006;6.020;2022-09-01T04:40:23;15.40;72.40
43524;DHT22;29120;52.006;6.020;2022-09-01T04:42:49;15.40;72.40
43524;DHT22;29120;52.006;6.020;2022-09-01T04:45:15;15.40;72.40
43524;DHT22;29120;52.006;6.020;2022-09-01T04:47:41;15.30;72.40
43524;DHT22;29120;52.006;6.020;2022-09-01T04:50:08;15.30;72.40
43524;DHT22;29120;52.006;6.020;2022-09-01T04:52:39;15.30;72.30
43524;DHT22;29120;52.006;6.020;2022-09-01T04:55:07;15.30;72.30
43524;DHT22;29120;52.006;6.020;2022-09-01T04:57:33;15.30;72.30
43524;DHT22;29120;52.006;6.020;2022-09-01T04:59:59;15.30;72.30
43524;DHT22;29120;52.006;6.020;2022-09-01T05:02:25;15.30;72.30
43524;DHT22;29120;52.006;6.020;2022-09-01T05:04:53;15.30;72.20
43524;DHT22;29120;52.006;6.020;2022-09-01T05:07:19;15.30;72.10
43524;DHT22;29120;52.006;6.020;2022-09-01T05:09:45;15.30;72.10
43524;DHT22;29120;52.006;6.020;2022-09-01T05:12:11;15.30;72.10
43524;DHT22;29120;52.006;6.020;2022-09-01T05:14:39;15.30;72.10
43524;DHT22;29120;52.006;6.020;2022-09-01T05:17:08;15.30;72.10
43524;DHT22;29120;52.006;6.020;2022-09-01T05:19:47;15.30;72.10
43524;DHT22;29120;52.006;6.020;2022-09-01T05:22:15;15.30;72.10
43524;DHT22;29120;52.006;6.020;2022-09-01T05:24:42;15.20;72.00
43524;DHT22;29120;52.006;6.020;2022-09-01T05:27:08;15.20;72.10
43524;DHT22;29120;52.006;6.020;2022-09-01T05:29:34;15.20;72.00
43524;DHT22;29120;52.006;6.020;2022-09-01T05:32:03;15.20;72.10
43524;DHT22;29120;52.006;6.020;2022-09-01T05:34:33;15.20;72.20
43524;DHT22;29120;52.006;6.020;2022-09-01T05:37:02;15.20;72.10
43524;DHT22;29120;52.006;6.020;2022-09-01T05:39:27;15.20;72.00
43524;DHT22;29120;52.006;6.020;2022-09-01T05:41:53;15.20;72.00
43524;DHT22;29120;52.006;6.020;2022-09-01T05:44:20;15.30;72.10
43524;DHT22;29120;52.006;6.020;2022-09-01T05:46:48;15.30;71.90
43524;DHT22;29120;52.006;6.020;2022-09-01T05:49:15;15.30;71.80
43524;DHT22;29120;52.006;6.020;2022-09-01T05:51:44;15.30;71.80
43524;DHT22;29120;52.006;6.020;2022-09-01T05:54:15;15.40;71.70
43524;DHT22;29120;52.006;6.020;2022-09-01T05:56:42;15.50;71.40
43524;DHT22;29120;52.006;6.020;2022-09-01T05:59:08;15.60;71.30
43524;DHT22;29120;52.006;6.020;2022-09-01T06:01:35;15.70;71.00
43524;DHT22;29120;52.006;6.020;2022-09-01T06:04:07;15.80;70.80
43524;DHT22;29120;52.006;6.020;2022-09-01T06:06:41;15.80;70.60
43524;DHT22;29120;52.006;6.020;2022-09-01T06:09:10;16.10;70.20
43524;DHT22;29120;52.006;6.020;2022-09-01T06:11:38;16.30;69.70
43524;DHT22;29120;52.006;6.020;2022-09-01T06:14:05;16.40;69.20
43524;DHT22;29120;52.006;6.020;2022-09-01T06:16:33;16.40;68.90
43524;DHT22;29120;52.006;6.020;2022-09-01T06:19:00;16.40;68.90
43524;DHT22;29120;52.006;6.020;2022-09-01T06:21:26;16.40;68.90
43524;DHT22;29120;52.006;6.020;2022-09-01T06:23:55;16.40;68.80
43524;DHT22;29120;52.006;6.020;2022-09-01T06:26:27;16.50;68.70
43524;DHT22;29120;52.006;6.020;2022-09-01T06:28:55;16.60;68.50
43524;DHT22;29120;52.006;6.020;2022-09-01T06:31:23;17.10;68.00
43524;DHT22;29120;52.006;6.020;2022-09-01T06:33:53;17.90;66.40
43524;DHT22;29120;52.006;6.020;2022-09-01T06:36:20;18.80;64.50
43524;DHT22;29120;52.006;6.020;2022-09-01T06:38:48;19.70;62.30
43524;DHT22;29120;52.006;6.020;2022-09-01T06:41:15;20.50;60.60
43524;DHT22;29120;52.006;6.020;2022-09-01T06:43:45;21.20;59.10
43524;DHT22;29120;52.006;6.020;2022-09-01T06:46:11;21.70;57.80
43524;DHT22;29120;52.006;6.020;2022-09-01T06:48:37;22.20;57.20
43524;DHT22;29120;52.006;6.020;2022-09-01T06:51:04;22.20;56.40
43524;DHT22;29120;52.006;6.020;2022-09-01T06:53:33;21.80;56.60
43524;DHT22;29120;52.006;6.020;2022-09-01T06:56:00;21.40;57.30
43524;DHT22;29120;52.006;6.020;2022-09-01T06:58:27;21.20;58.00
43524;DHT22;29120;52.006;6.020;2022-09-01T07:00:53;21.00;58.40
43524;DHT22;29120;52.006;6.020;2022-09-01T07:03:19;20.80;58.40
43524;DHT22;29120;52.006;6.020;2022-09-01T07:05:47;20.70;58.70
43524;DHT22;29120;52.006;6.020;2022-09-01T07:08:16;20.70;58.70
43524;DHT22;29120;52.006;6.020;2022-09-01T07:10:49;20.70;58.80
43524;DHT22;29120;52.006;6.020;2022-09-01T07:13:18;20.70;58.80
43524;DHT22;29120;52.006;6.020;2022-09-01T07:15:48;20.50;58.90
43524;DHT22;29120;52.006;6.020;2022-09-01T07:18:18;20.30;59.20
43524;DHT22;29120;52.006;6.020;2022-09-01T07:20:46;20.10;59.40
43524;DHT22;29120;52.006;6.020;2022-09-01T07:23:13;20.00;59.40
43524;DHT22;29120;52.006;6.020;2022-09-01T07:25:43;19.90;59.50
43524;DHT22;29120;52.006;6.020;2022-09-01T07:28:11;19.80;59.80
43524;DHT22;29120;52.006;6.020;2022-09-01T07:30:46;20.00;59.90
43524;DHT22;29120;52.006;6.020;2022-09-01T07:33:14;20.30;59.30
43524;DHT22;29120;52.006;6.020;2022-09-01T07:35:41;20.40;59.00
43524;DHT22;29120;52.006;6.020;2022-09-01T07:38:08;20.60;58.70
43524;DHT22;29120;52.006;6.020;2022-09-01T07:40:37;20.70;58.30
43524;DHT22;29120;52.006;6.020;2022-09-01T07:43:12;20.90;58.00
43524;DHT22;29120;52.006;6.020;2022-09-01T07:45:43;21.00;57.90
43524;DHT22;29120;52.006;6.020;2022-09-01T07:48:14;21.00;57.70
43524;DHT22;29120;52.006;6.020;2022-09-01T07:50:44;21.00;57.70
43524;DHT22;29120;52.006;6.020;2022-09-01T07:53:12;21.10;58.30
43524;DHT22;29120;52.006;6.020;2022-09-01T07:55:45;21.30;57.40
43524;DHT22;29120;52.006;6.020;2022-09-01T07:58:12;21.60;57.10
43524;DHT22;29120;52.006;6.020;2022-09-01T08:00:39;21.80;56.60
43524;DHT22;29120;52.006;6.020;2022-09-01T08:03:07;22.00;56.30
43524;DHT22;29120;52.006;6.020;2022-09-01T08:05:33;22.20;56.20
43524;DHT22;29120;52.006;6.020;2022-09-01T08:07:58;22.30;55.70
43524;DHT22;29120;52.006;6.020;2022-09-01T08:10:25;22.40;55.60
43524;DHT22;29120;52.006;6.020;2022-09-01T08:12:50;22.60;55.30
43524;DHT22;29120;52.006;6.020;2022-09-01T08:15:16;22.60;54.50
43524;DHT22;29120;52.006;6.020;2022-09-01T08:17:43;22.80;54.50
43524;DHT22;29120;52.006;6.020;2022-09-01T08:20:09;23.00;54.20
43524;DHT22;29120;52.006;6.020;2022-09-01T08:22:36;23.20;53.90
43524;DHT22;29120;52.006;6.020;2022-09-01T08:25:04;23.30;53.60
43524;DHT22;29120;52.006;6.020;2022-09-01T08:27:32;23.50;53.30
43524;DHT22;29120;52.006;6.020;2022-09-01T08:29:58;23.70;53.00
43524;DHT22;29120;52.006;6.020;2022-09-01T08:32:24;23.80;52.40
43524;DHT22;29120;52.006;6.020;2022-09-01T08:34:50;24.00;51.90
43524;DHT22;29120;52.006;6.020;2022-09-01T08:37:16;24.10;51.60
43524;DHT22;29120;52.006;6.020;2022-09-01T08:39:41;24.30;51.40
43524;DHT22;29120;52.006;6.020;2022-09-01T08:42:39;24.40;51.00
43524;DHT22;29120;52.006;6.020;2022-09-01T08:47:55;24.70;50.10
43524;DHT22;29120;52.006;6.020;2022-09-01T08:50:21;24.90;50.20
43524;DHT22;29120;52.006;6.020;2022-09-01T08:55:56;25.40;49.00
43524;DHT22;29120;52.006;6.020;2022-09-01T08:58:23;26.00;47.90
43524;DHT22;29120;52.006;6.020;2022-09-01T09:00:55;26.50;47.10
43524;DHT22;29120;52.006;6.020;2022-09-01T09:04:02;26.90;46.40
43524;DHT22;29120;52.006;6.020;2022-09-01T09:06:53;27.40;45.00
43524;DHT22;29120;52.006;6.020;2022-09-01T09:09:29;27.80;44.20
43524;DHT22;29120;52.006;6.020;2022-09-01T09:12:12;28.00;43.30
43524;DHT22;29120;52.006;6.020;2022-09-01T09:15:16;28.20;42.90
43524;DHT22;29120;52.006;6.020;2022-09-01T09:17:50;28.30;42.70
43524;DHT22;29120;52.006;6.020;2022-09-01T09:20:20;28.50;42.80
43524;DHT22;29120;52.006;6.020;2022-09-01T09:22:47;28.80;42.20
43524;DHT22;29120;52.006;6.020;2022-09-01T09:25:17;29.20;42.20
43524;DHT22;29120;52.006;6.020;2022-09-01T09:27:45;29.40;41.60
43524;DHT22;29120;52.006;6.020;2022-09-01T09:30:23;29.60;41.00
43524;DHT22;29120;52.006;6.020;2022-09-01T09:33:02;30.00;40.40
43524;DHT22;29120;52.006;6.020;2022-09-01T09:43:23;31.70;37.80
43524;DHT22;29120;52.006;6.020;2022-09-01T09:45:48;32.10;37.30
43524;DHT22;29120;52.006;6.020;2022-09-01T09:48:29;32.70;36.70
43524;DHT22;29120;52.006;6.020;2022-09-01T09:51:15;33.30;36.10
43524;DHT22;29120;52.006;6.020;2022-09-01T09:53:41;33.90;35.60
43524;DHT22;29120;52.006;6.020;2022-09-01T09:56:23;34.50;34.90
43524;DHT22;29120;52.006;6.020;2022-09-01T09:58:51;35.30;34.10
43524;DHT22;29120;52.006;6.020;2022-09-01T10:03:58;35.90;33.10
43524;DHT22;29120;52.006;6.020;2022-09-01T10:09:06;35.90;32.40
43524;DHT22;29120;52.006;6.020;2022-09-01T10:11:44;36.00;32.30
43524;DHT22;29120;52.006;6.020;2022-09-01T10:14:15;36.30;32.30
43524;DHT22;29120;52.006;6.020;2022-09-01T10:16:41;36.30;31.60
43524;DHT22;29120;52.006;6.020;2022-09-01T10:19:12;36.50;30.80
43524;DHT22;29120;52.006;6.020;2022-09-01T10:21:43;36.40;31.10
43524;DHT22;29120;52.006;6.020;2022-09-01T10:24:33;36.00;31.30
43524;DHT22;29120;52.006;6.020;2022-09-01T10:27:02;34.90;31.50
43524;DHT22;29120;52.006;6.020;2022-09-01T10:30:32;33.80;32.20
43524;DHT22;29120;52.006;6.020;2022-09-01T10:32:36;32.50;32.90
43524;DHT22;29120;52.006;6.020;2022-09-01T10:35:04;30.90;34.10
43524;DHT22;29120;52.006;6.020;2022-09-01T10:37:30;29.70;35.40
43524;DHT22;29120;52.006;6.020;2022-09-01T10:40:12;28.90;36.30
43524;DHT22;29120;52.006;6.020;2022-09-01T10:42:39;28.50;37.30
43524;DHT22;29120;52.006;6.020;2022-09-01T10:45:16;28.70;37.50
43524;DHT22;29120;52.006;6.020;2022-09-01T10:47:43;30.10;36.80
43524;DHT22;29120;52.006;6.020;2022-09-01T10:50:26;31.40;35.90
43524;DHT22;29120;52.006;6.020;2022-09-01T10:52:53;33.00;35.00
43524;DHT22;29120;52.006;6.020;2022-09-01T11:00:47;35.40;33.30
43524;DHT22;29120;52.006;6.020;2022-09-01T11:08:24;36.50;31.70
43524;DHT22;29120;52.006;6.020;2022-09-01T11:13:40;36.70;31.70
43524;DHT22;29120;52.006;6.020;2022-09-01T11:16:27;36.90;31.50
43524;DHT22;29120;52.006;6.020;2022-09-01T11:18:54;37.50;30.90
43524;DHT22;29120;52.006;6.020;2022-09-01T11:21:27;37.70;30.90
43524;DHT22;29120;52.006;6.020;2022-09-01T11:27:03;37.90;30.30
43524;DHT22;29120;52.006;6.020;2022-09-01T11:31:55;37.70;30.20
43524;DHT22;29120;52.006;6.020;2022-09-01T11:34:21;38.00;30.50
43524;DHT22;29120;52.006;6.020;2022-09-01T11:36:53;38.10;30.10
43524;DHT22;29120;52.006;6.020;2022-09-01T11:39:40;38.10;30.30
43524;DHT22;29120;52.006;6.020;2022-09-01T11:47:04;37.90;29.90
43524;DHT22;29120;52.006;6.020;2022-09-01T11:49:36;37.90;29.60
43524;DHT22;29120;52.006;6.020;2022-09-01T11:52:04;38.10;29.90
43524;DHT22;29120;52.006;6.020;2022-09-01T11:54:38;38.30;29.90
43524;DHT22;29120;52.006;6.020;2022-09-01T11:59:53;39.00;29.70
43524;DHT22;29120;52.006;6.020;2022-09-01T12:02:28;39.00;29.80
43524;DHT22;29120;52.006;6.020;2022-09-01T12:04:56;39.20;29.70
43524;DHT22;29120;52.006;6.020;2022-09-01T12:07:43;39.50;29.80
43524;DHT22;29120;52.006;6.020;2022-09-01T12:10:35;39.50;29.60
43524;DHT22;29120;52.006;6.020;2022-09-01T12:13:10;39.50;29.60
43524;DHT22;29120;52.006;6.020;2022-09-01T12:15:39;39.50;29.60
43524;DHT22;29120;52.006;6.020;2022-09-01T12:18:21;39.40;29.50
43524;DHT22;29120;52.006;6.020;2022-09-01T12:20:49;39.40;29.70
43524;DHT22;29120;52.006;6.020;2022-09-01T12:25:58;39.30;29.70
43524;DHT22;29120;52.006;6.020;2022-09-01T12:28:27;39.40;29.60
43524;DHT22;29120;52.006;6.020;2022-09-01T12:30:59;39.30;29.40
43524;DHT22;29120;52.006;6.020;2022-09-01T12:33:25;39.20;29.40
43524;DHT22;29120;52.006;6.020;2022-09-01T12:35:51;39.20;29.40
43524;DHT22;29120;52.006;6.020;2022-09-01T12:38:35;39.00;29.20
43524;DHT22;29120;52.006;6.020;2022-09-01T12:41:01;39.20;29.50
43524;DHT22;29120;52.006;6.020;2022-09-01T12:43:31;39.50;29.40
43524;DHT22;29120;52.006;6.020;2022-09-01T12:45:57;39.80;29.20
43524;DHT22;29120;52.006;6.020;2022-09-01T12:48:51;39.50;28.60
43524;DHT22;29120;52.006;6.020;2022-09-01T12:51:24;39.20;28.60
43524;DHT22;29120;52.006;6.020;2022-09-01T12:53:58;39.20;28.80
43524;DHT22;29120;52.006;6.020;2022-09-01T12:56:35;39.10;28.70
43524;DHT22;29120;52.006;6.020;2022-09-01T12:59:24;38.70;29.00
43524;DHT22;29120;52.006;6.020;2022-09-01T13:01:49;38.50;29.20
43524;DHT22;29120;52.006;6.020;2022-09-01T13:04:28;38.30;29.10
43524;DHT22;29120;52.006;6.020;2022-09-01T13:07:05;38.30;29.30
43524;DHT22;29120;52.006;6.020;2022-09-01T13:09:32;38.30;29.20
43524;DHT22;29120;52.006;6.020;2022-09-01T13:12:14;38.60;29.40
43524;DHT22;29120;52.006;6.020;2022-09-01T13:14:40;38.90;29.20
43524;DHT22;29120;52.006;6.020;2022-09-01T13:17:05;38.90;29.00
43524;DHT22;29120;52.006;6.020;2022-09-01T13:19:31;38.70;28.90
43524;DHT22;29120;52.006;6.020;2022-09-01T13:21:56;38.60;29.00
43524;DHT22;29120;52.006;6.020;2022-09-01T13:24:22;38.70;29.10
43524;DHT22;29120;52.006;6.020;2022-09-01T13:26:48;38.50;28.90
43524;DHT22;29120;52.006;6.020;2022-09-01T13:29:19;38.50;29.10
43524;DHT22;29120;52.006;6.020;2022-09-01T13:31:45;38.30;28.90
43524;DHT22;29120;52.006;6.020;2022-09-01T13:34:10;38.10;29.20
43524;DHT22;29120;52.006;6.020;2022-09-01T13:36:36;38.10;29.30
43524;DHT22;29120;52.006;6.020;2022-09-01T13:39:02;38.00;29.00
43524;DHT22;29120;52.006;6.020;2022-09-01T13:41:27;37.90;29.20
43524;DHT22;29120;52.006;6.020;2022-09-01T13:43:53;37.70;29.20
43524;DHT22;29120;52.006;6.020;2022-09-01T13:46:20;37.70;29.30
43524;DHT22;29120;52.006;6.020;2022-09-01T13:48:45;37.80;29.20
43524;DHT22;29120;52.006;6.020;2022-09-01T13:51:11;37.90;29.50
43524;DHT22;29120;52.006;6.020;2022-09-01T13:53:36;37.90;29.20
43524;DHT22;29120;52.006;6.020;2022-09-01T13:56:03;37.90;29.40
43524;DHT22;29120;52.006;6.020;2022-09-01T13:58:28;37.90;29.50
43524;DHT22;29120;52.006;6.020;2022-09-01T14:00:54;37.90;29.30
43524;DHT22;29120;52.006;6.020;2022-09-01T14:03:22;37.90;29.40
43524;DHT22;29120;52.006;6.020;2022-09-01T14:05:48;37.80;29.30
43524;DHT22;29120;52.006;6.020;2022-09-01T14:08:15;37.80;29.20
43524;DHT22;29120;52.006;6.020;2022-09-01T14:10:44;37.50;29.00
43524;DHT22;29120;52.006;6.020;2022-09-01T14:13:12;37.30;28.90
43524;DHT22;29120;52.006;6.020;2022-09-01T14:15:38;37.00;29.10
43524;DHT22;29120;52.006;6.020;2022-09-01T14:18:04;37.00;29.40
43524;DHT22;29120;52.006;6.020;2022-09-01T14:20:34;36.90;29.40
43524;DHT22;29120;52.006;6.020;2022-09-01T14:23:03;36.70;29.20
43524;DHT22;29120;52.006;6.020;2022-09-01T14:25:29;36.30;29.30
43524;DHT22;29120;52.006;6.020;2022-09-01T14:27:55;36.10;29.50
43524;DHT22;29120;52.006;6.020;2022-09-01T14:30:24;36.10;29.60
43524;DHT22;29120;52.006;6.020;2022-09-01T14:32:50;36.10;29.80
43524;DHT22;29120;52.006;6.020;2022-09-01T14:35:21;35.80;29.80
43524;DHT22;29120;52.006;6.020;2022-09-01T14:37:49;35.70;30.00
43524;DHT22;29120;52.006;6.020;2022-09-01T14:40:15;35.60;30.00
43524;DHT22;29120;52.006;6.020;2022-09-01T14:42:43;35.60;30.30
43524;DHT22;29120;52.006;6.020;2022-09-01T14:45:11;35.60;30.40
43524;DHT22;29120;52.006;6.020;2022-09-01T14:47:37;35.50;30.10
43524;DHT22;29120;52.006;6.020;2022-09-01T14:50:04;35.20;30.10
43524;DHT22;29120;52.006;6.020;2022-09-01T14:52:29;35.00;30.20
43524;DHT22;29120;52.006;6.020;2022-09-01T14:54:55;35.00;30.30
43524;DHT22;29120;52.006;6.020;2022-09-01T14:57:21;34.90;30.40
43524;DHT22;29120;52.006;6.020;2022-09-01T14:59:47;34.80;30.40
43524;DHT22;29120;52.006;6.020;2022-09-01T15:02:13;34.60;30.40
43524;DHT22;29120;52.006;6.020;2022-09-01T15:04:39;34.30;30.70
43524;DHT22;29120;52.006;6.020;2022-09-01T15:07:04;34.10;30.70
43524;DHT22;29120;52.006;6.020;2022-09-01T15:09:31;33.70;30.80
43524;DHT22;29120;52.006;6.020;2022-09-01T15:11:57;33.50;31.10
43524;DHT22;29120;52.006;6.020;2022-09-01T15:14:23;33.50;31.60
43524;DHT22;29120;52.006;6.020;2022-09-01T15:16:48;33.30;31.60
43524;DHT22;29120;52.006;6.020;2022-09-01T15:19:14;33.00;31.90
43524;DHT22;29120;52.006;6.020;2022-09-01T15:21:42;32.70;32.30
43524;DHT22;29120;52.006;6.020;2022-09-01T15:24:10;32.40;32.60
43524;DHT22;29120;52.006;6.020;2022-09-01T15:26:36;32.10;32.90
43524;DHT22;29120;52.006;6.020;2022-09-01T15:29:03;31.70;33.10
43524;DHT22;29120;52.006;6.020;2022-09-01T15:31:29;31.20;33.30
43524;DHT22;29120;52.006;6.020;2022-09-01T15:33:58;30.90;33.80
43524;DHT22;29120;52.006;6.020;2022-09-01T15:36:26;30.70;34.00
43524;DHT22;29120;52.006;6.020;2022-09-01T15:38:56;30.40;34.20
43524;DHT22;29120;52.006;6.020;2022-09-01T15:41:27;30.10;34.40
43524;DHT22;29120;52.006;6.020;2022-09-01T15:43:54;29.90;34.70
43524;DHT22;29120;52.006;6.020;2022-09-01T15:46:20;29.70;34.90
43524;DHT22;29120;52.006;6.020;2022-09-01T15:48:46;29.50;35.10
43524;DHT22;29120;52.006;6.020;2022-09-01T15:53:47;29.00;35.80
43524;DHT22;29120;52.006;6.020;2022-09-01T15:56:13;28.80;36.10
43524;DHT22;29120;52.006;6.020;2022-09-01T15:58:38;28.70;36.10
43524;DHT22;29120;52.006;6.020;2022-09-01T16:01:04;28.50;36.30
43524;DHT22;29120;52.006;6.020;2022-09-01T16:03:30;28.40;36.50
43524;DHT22;29120;52.006;6.020;2022-09-01T16:05:59;28.30;36.60
43524;DHT22;29120;52.006;6.020;2022-09-01T16:08:24;28.30;36.70
43524;DHT22;29120;52.006;6.020;2022-09-01T16:10:50;28.20;36.70
43524;DHT22;29120;52.006;6.020;2022-09-01T16:13:16;28.20;36.80
43524;DHT22;29120;52.006;6.020;2022-09-01T16:15:47;28.10;36.90
43524;DHT22;29120;52.006;6.020;2022-09-01T16:21:33;27.90;37.10
43524;DHT22;29120;52.006;6.020;2022-09-01T16:24:07;27.80;37.20
43524;DHT22;29120;52.006;6.020;2022-09-01T16:26:35;27.70;37.80
43524;DHT22;29120;52.006;6.020;2022-09-01T16:29:05;27.70;37.30
43524;DHT22;29120;52.006;6.020;2022-09-01T16:31:33;27.60;37.30
43524;DHT22;29120;52.006;6.020;2022-09-01T16:34:11;27.50;37.30
43524;DHT22;29120;52.006;6.020;2022-09-01T16:36:58;27.40;37.20
43524;DHT22;29120;52.006;6.020;2022-09-01T16:42:20;27.30;37.30
43524;DHT22;29120;52.006;6.020;2022-09-01T16:45:10;27.30;37.40